sensor_id;sensor_type;location;lat;lon;timestamp;pressure;altitude;pressure_sealevel;temperature;humidity
11523;BME280;70090;43.208;27.904;2024-02-15T00:00:51;101258.94;;;6.59;100.00
11523;BME280;70090;43.208;27.904;2024-02-15T00:03:18;101242.25;;;6.52;100.00
11523;BME280;70090;43.208;27.904;2024-02-15T00:05:48;101249.66;;;6.52;100.00
11523;BME280;70090;43.208;27.904;2024-02-15T00:08:15;101229.25;;;6.49;100.00
11523;BME280;70090;43.208;27.904;2024-02-15T00:10:42;101230.53;;;6.52;100.00
11523;BME280;70090;43.208;27.904;2024-02-15T00:13:10;101234.25;;;6.47;100.00
11523;BME280;70090;43.208;27.904;2024-02-15T00:15:37;101235.84;;;6.48;100.00
11523;BME280;70090;43.208;27.904;2024-02-15T00:18:04;101244.50;;;6.50;100.00
11523;BME280;70090;43.208;27.904;2024-02-15T00:20:32;101234.72;;;6.49;100.00
11523;BME280;70090;43.208;27.904;2024-02-15T00:23:02;101244.06;;;6.48;100.00
11523;BME280;70090;43.208;27.904;2024-02-15T00:25:29;101243.06;;;6.53;100.00
11523;BME280;70090;43.208;27.904;2024-02-15T00:27:56;101235.66;;;6.53;100.00
11523;BME280;70090;43.208;27.904;2024-02-15T00:30:23;101227.44;;;6.53;100.00
11523;BME280;70090;43.208;27.904;2024-02-15T00:32:50;101213.31;;;6.51;100.00
11523;BME280;70090;43.208;27.904;2024-02-15T00:35:17;101229.91;;;6.46;100.00
11523;BME280;70090;43.208;27.904;2024-02-15T00:37:44;101211.25;;;6.48;100.00
11523;BME280;70090;43.208;27.904;2024-02-15T00:40:13;101215.09;;;6.47;100.00
11523;BME280;70090;43.208;27.904;2024-02-15T00:42:40;101198.09;;;6.42;100.00
11523;BME280;70090;43.208;27.904;2024-02-15T00:45:07;101189.38;;;6.48;100.00
11523;BME280;70090;43.208;27.904;2024-02-15T00:47:36;101197.44;;;6.45;100.00
11523;BME280;70090;43.208;27.904;2024-02-15T00:50:04;101190.50;;;6.47;100.00
11523;BME280;70090;43.208;27.904;2024-02-15T00:52:31;101193.38;;;6.51;100.00
11523;BME280;70090;43.208;27.904;2024-02-15T00:54:58;101184.81;;;6.52;100.00
11523;BME280;70090;43.208;27.904;2024-02-15T00:57:26;101186.63;;;6.48;100.00
11523;BME280;70090;43.208;27.904;2024-02-15T00:59:53;101170.22;;;6.48;100.00
11523;BME280;70090;43.208;27.904;2024-02-15T01:02:20;101178.75;;;6.47;100.00
11523;BME280;70090;43.208;27.904;2024-02-15T01:04:50;101158.47;;;6.48;100.00
11523;BME280;70090;43.208;27.904;2024-02-15T01:07:18;101163.84;;;6.44;100.00
11523;BME280;70090;43.208;27.904;2024-02-15T01:09:46;101159.97;;;6.45;100.00
11523;BME280;70090;43.208;27.904;2024-02-15T01:12:13;101160.88;;;6.49;100.00
11523;BME280;70090;43.208;27.904;2024-02-15T01:14:41;101154.50;;;6.45;100.00
11523;BME280;70090;43.208;27.904;2024-02-15T01:17:08;101159.28;;;6.48;100.00
11523;BME280;70090;43.208;27.904;2024-02-15T01:19:35;101165.75;;;6.44;100.00
11523;BME280;70090;43.208;27.904;2024-02-15T01:22:02;101185.72;;;6.44;100.00
11523;BME280;70090;43.208;27.904;2024-02-15T01:24:31;101167.50;;;6.48;100.00
11523;BME280;70090;43.208;27.904;2024-02-15T01:26:59;101169.31;;;6.44;100.00
11523;BME280;70090;43.208;27.904;2024-02-15T01:29:26;101172.38;;;6.63;100.00
11523;BME280;70090;43.208;27.904;2024-02-15T01:31:55;101169.69;;;6.55;100.00
11523;BME280;70090;43.208;27.904;2024-02-15T01:34:22;101170.38;;;6.52;100.00
11523;BME280;70090;43.208;27.904;2024-02-15T01:36:49;101177.16;;;6.46;100.00
11523;BME280;70090;43.208;27.904;2024-02-15T01:39:16;101163.03;;;6.44;100.00
11523;BME280;70090;43.208;27.904;2024-02-15T01:41:46;101192.78;;;6.45;100.00
11523;BME280;70090;43.208;27.904;2024-02-15T01:44:16;101188.63;;;6.39;100.00
11523;BME280;70090;43.208;27.904;2024-02-15T01:46:45;101187.47;;;6.40;100.00
11523;BME280;70090;43.208;27.904;2024-02-15T01:49:16;101189.28;;;6.36;100.00
11523;BME280;70090;43.208;27.904;2024-02-15T01:51:43;101183.81;;;6.36;100.00
11523;BME280;70090;43.208;27.904;2024-02-15T01:54:12;101167.41;;;6.36;100.00
11523;BME280;70090;43.208;27.904;2024-02-15T01:56:43;101186.34;;;6.41;100.00
11523;BME280;70090;43.208;27.904;2024-02-15T01:59:11;101184.09;;;6.43;100.00
11523;BME280;70090;43.208;27.904;2024-02-15T02:01:39;101182.47;;;6.42;100.00
11523;BME280;70090;43.208;27.904;2024-02-15T02:04:06;101187.84;;;6.39;100.00
11523;BME280;70090;43.208;27.904;2024-02-15T02:06:35;101188.75;;;6.43;100.00
11523;BME280;70090;43.208;27.904;2024-02-15T02:09:03;101195.69;;;6.40;100.00
11523;BME280;70090;43.208;27.904;2024-02-15T02:11:30;101194.38;;;6.46;100.00
11523;BME280;70090;43.208;27.904;2024-02-15T02:13:58;101184.56;;;6.45;100.00
11523;BME280;70090;43.208;27.904;2024-02-15T02:16:26;101190.56;;;6.39;100.00
11523;BME280;70090;43.208;27.904;2024-02-15T02:18:55;101202.91;;;6.45;100.00
11523;BME280;70090;43.208;27.904;2024-02-15T02:21:23;101202.56;;;6.46;100.00
11523;BME280;70090;43.208;27.904;2024-02-15T02:23:56;101202.91;;;6.45;100.00
11523;BME280;70090;43.208;27.904;2024-02-15T02:26:25;101193.09;;;6.44;100.00
11523;BME280;70090;43.208;27.904;2024-02-15T02:28:52;101203.56;;;6.42;100.00
11523;BME280;70090;43.208;27.904;2024-02-15T02:31:20;101206.25;;;6.50;100.00
11523;BME280;70090;43.208;27.904;2024-02-15T02:33:49;101219.75;;;6.47;100.00
11523;BME280;70090;43.208;27.904;2024-02-15T02:36:18;101204.31;;;6.51;100.00
11523;BME280;70090;43.208;27.904;2024-02-15T02:38:46;101196.91;;;6.51;100.00
11523;BME280;70090;43.208;27.904;2024-02-15T02:41:15;101211.91;;;6.45;100.00
11523;BME280;70090;43.208;27.904;2024-02-15T02:43:44;101222.19;;;6.48;100.00
11523;BME280;70090;43.208;27.904;2024-02-15T02:46:11;101209.19;;;6.45;100.00
11523;BME280;70090;43.208;27.904;2024-02-15T02:48:38;101213.13;;;6.56;100.00
11523;BME280;70090;43.208;27.904;2024-02-15T02:51:06;101210.72;;;6.55;100.00
11523;BME280;70090;43.208;27.904;2024-02-15T02:53:34;101213.31;;;6.51;100.00
11523;BME280;70090;43.208;27.904;2024-02-15T02:56:01;101212.78;;;6.58;100.00
11523;BME280;70090;43.208;27.904;2024-02-15T02:58:29;101196.38;;;6.58;100.00
11523;BME280;70090;43.208;27.904;2024-02-15T03:00:58;101202.66;;;6.58;100.00
11523;BME280;70090;43.208;27.904;2024-02-15T03:03:26;101197.84;;;6.55;100.00
11523;BME280;70090;43.208;27.904;2024-02-15T03:05:53;101199.09;;;6.58;100.00
11523;BME280;70090;43.208;27.904;2024-02-15T03:08:20;101192.63;;;6.62;100.00
11523;BME280;70090;43.208;27.904;2024-02-15T03:10:48;101183.97;;;6.60;100.00
11523;BME280;70090;43.208;27.904;2024-02-15T03:13:15;101196.22;;;6.54;100.00
11523;BME280;70090;43.208;27.904;2024-02-15T03:15:44;101191.72;;;6.58;100.00
11523;BME280;70090;43.208;27.904;2024-02-15T03:18:14;101206.53;;;6.57;100.00
11523;BME280;70090;43.208;27.904;2024-02-15T03:20:41;101208.31;;;6.53;100.00
11523;BME280;70090;43.208;27.904;2024-02-15T03:23:09;101193.31;;;6.59;100.00
11523;BME280;70090;43.208;27.904;2024-02-15T03:25:36;101213.59;;;6.58;100.00
11523;BME280;70090;43.208;27.904;2024-02-15T03:28:04;101195.13;;;6.55;100.00
11523;BME280;70090;43.208;27.904;2024-02-15T03:30:31;101198.50;;;6.52;100.00
11523;BME280;70090;43.208;27.904;2024-02-15T03:32:59;101207.16;;;6.54;100.00
11523;BME280;70090;43.208;27.904;2024-02-15T03:35:28;101217.72;;;6.64;100.00
11523;BME280;70090;43.208;27.904;2024-02-15T03:37:57;101198.78;;;6.59;100.00
11523;BME280;70090;43.208;27.904;2024-02-15T03:40:24;101203.94;;;6.61;100.00
11523;BME280;70090;43.208;27.904;2024-02-15T03:42:52;101205.19;;;6.63;100.00
11523;BME280;70090;43.208;27.904;2024-02-15T03:45:20;101195.31;;;6.50;100.00
11523;BME280;70090;43.208;27.904;2024-02-15T03:47:50;101213.78;;;6.53;100.00
11523;BME280;70090;43.208;27.904;2024-02-15T03:50:18;101203.31;;;6.55;100.00
11523;BME280;70090;43.208;27.904;2024-02-15T03:52:49;101219.84;;;6.59;100.00
11523;BME280;70090;43.208;27.904;2024-02-15T03:55:17;101225.47;;;6.62;100.00
11523;BME280;70090;43.208;27.904;2024-02-15T03:57:44;101230.59;;;6.64;100.00
11523;BME280;70090;43.208;27.904;2024-02-15T04:00:12;101228.41;;;6.57;100.00
11523;BME280;70090;43.208;27.904;2024-02-15T04:02:40;101228.88;;;6.59;100.00
11523;BME280;70090;43.208;27.904;2024-02-15T04:05:10;101232.06;;;6.61;100.00
11523;BME280;70090;43.208;27.904;2024-02-15T04:07:37;101242.53;;;6.59;100.00
11523;BME280;70090;43.208;27.904;2024-02-15T04:10:07;101246.06;;;6.60;100.00
11523;BME280;70090;43.208;27.904;2024-02-15T04:12:34;101233.19;;;6.60;100.00
11523;BME280;70090;43.208;27.904;2024-02-15T04:15:02;101262.16;;;6.61;100.00
11523;BME280;70090;43.208;27.904;2024-02-15T04:17:37;101246.56;;;6.62;100.00
11523;BME280;70090;43.208;27.904;2024-02-15T04:20:05;101239.47;;;6.61;100.00
11523;BME280;70090;43.208;27.904;2024-02-15T04:22:32;101216.50;;;6.53;100.00
11523;BME280;70090;43.208;27.904;2024-02-15T04:25:03;101248.69;;;6.56;100.00
11523;BME280;70090;43.208;27.904;2024-02-15T04:27:33;101270.19;;;6.66;100.00
11523;BME280;70090;43.208;27.904;2024-02-15T04:30:00;101249.41;;;6.65;100.00
11523;BME280;70090;43.208;27.904;2024-02-15T04:32:29;101271.25;;;6.74;100.00
11523;BME280;70090;43.208;27.904;2024-02-15T04:34:59;101266.56;;;6.74;100.00
11523;BME280;70090;43.208;27.904;2024-02-15T04:37:27;101263.66;;;6.79;100.00
11523;BME280;70090;43.208;27.904;2024-02-15T04:39:57;101247.41;;;6.74;100.00
11523;BME280;70090;43.208;27.904;2024-02-15T04:42:24;101241.88;;;6.62;100.00
11523;BME280;70090;43.208;27.904;2024-02-15T04:44:54;101266.44;;;6.71;100.00
11523;BME280;70090;43.208;27.904;2024-02-15T04:47:22;101275.13;;;6.73;100.00
11523;BME280;70090;43.208;27.904;2024-02-15T04:49:49;101259.50;;;6.73;100.00
11523;BME280;70090;43.208;27.904;2024-02-15T04:52:16;101269.78;;;6.76;100.00
11523;BME280;70090;43.208;27.904;2024-02-15T04:54:43;101276.72;;;6.74;100.00
11523;BME280;70090;43.208;27.904;2024-02-15T04:57:11;101255.81;;;6.69;100.00
11523;BME280;70090;43.208;27.904;2024-02-15T04:59:38;101277.25;;;6.67;100.00
11523;BME280;70090;43.208;27.904;2024-02-15T05:02:06;101283.19;;;6.69;100.00
11523;BME280;70090;43.208;27.904;2024-02-15T05:04:34;101277.50;;;6.74;100.00
11523;BME280;70090;43.208;27.904;2024-02-15T05:07:02;101279.00;;;6.72;100.00
11523;BME280;70090;43.208;27.904;2024-02-15T05:09:30;101278.84;;;6.68;100.00
11523;BME280;70090;43.208;27.904;2024-02-15T05:11:59;101279.78;;;6.72;100.00
11523;BME280;70090;43.208;27.904;2024-02-15T05:14:27;101297.94;;;6.77;100.00
11523;BME280;70090;43.208;27.904;2024-02-15T05:16:54;101313.66;;;6.80;100.00
11523;BME280;70090;43.208;27.904;2024-02-15T05:19:23;101315.16;;;6.77;100.00
11523;BME280;70090;43.208;27.904;2024-02-15T05:21:50;101309.03;;;6.80;100.00
11523;BME280;70090;43.208;27.904;2024-02-15T05:24:17;101320.25;;;6.87;100.00
11523;BME280;70090;43.208;27.904;2024-02-15T05:26:45;101311.53;;;6.85;100.00
11523;BME280;70090;43.208;27.904;2024-02-15T05:29:14;101328.31;;;6.84;100.00
11523;BME280;70090;43.208;27.904;2024-02-15T05:31:42;101343.06;;;6.91;100.00
11523;BME280;70090;43.208;27.904;2024-02-15T05:34:10;101348.34;;;6.96;100.00
11523;BME280;70090;43.208;27.904;2024-02-15T05:36:39;101347.47;;;7.04;100.00
11523;BME280;70090;43.208;27.904;2024-02-15T05:39:06;101358.88;;;7.15;100.00
11523;BME280;70090;43.208;27.904;2024-02-15T05:41:37;101360.19;;;7.09;100.00
11523;BME280;70090;43.208;27.904;2024-02-15T05:44:05;101361.16;;;7.04;100.00
11523;BME280;70090;43.208;27.904;2024-02-15T05:46:34;101356.16;;;7.06;100.00
11523;BME280;70090;43.208;27.904;2024-02-15T05:49:03;101367.09;;;7.06;100.00
11523;BME280;70090;43.208;27.904;2024-02-15T05:51:31;101355.91;;;6.99;100.00
11523;BME280;70090;43.208;27.904;2024-02-15T05:54:00;101371.34;;;7.04;100.00
11523;BME280;70090;43.208;27.904;2024-02-15T05:56:28;101355.63;;;6.92;100.00
11523;BME280;70090;43.208;27.904;2024-02-15T05:58:55;101358.16;;;6.97;100.00
11523;BME280;70090;43.208;27.904;2024-02-15T06:01:22;101386.00;;;6.99;100.00
11523;BME280;70090;43.208;27.904;2024-02-15T06:03:49;101359.28;;;6.96;100.00
11523;BME280;70090;43.208;27.904;2024-02-15T06:06:20;101379.91;;;6.94;100.00
11523;BME280;70090;43.208;27.904;2024-02-15T06:08:48;101373.63;;;6.93;100.00
11523;BME280;70090;43.208;27.904;2024-02-15T06:11:20;101375.09;;;6.91;100.00
11523;BME280;70090;43.208;27.904;2024-02-15T06:13:47;101389.22;;;7.01;100.00
11523;BME280;70090;43.208;27.904;2024-02-15T06:16:14;101385.66;;;7.01;100.00
11523;BME280;70090;43.208;27.904;2024-02-15T06:18:41;101393.53;;;7.02;100.00
11523;BME280;70090;43.208;27.904;2024-02-15T06:21:08;101400.09;;;7.10;100.00
11523;BME280;70090;43.208;27.904;2024-02-15T06:23:35;101399.09;;;7.14;100.00
11523;BME280;70090;43.208;27.904;2024-02-15T06:26:03;101406.38;;;7.10;100.00
11523;BME280;70090;43.208;27.904;2024-02-15T06:28:31;101405.44;;;7.06;100.00
11523;BME280;70090;43.208;27.904;2024-02-15T06:31:15;101406.38;;;7.10;100.00
11523;BME280;70090;43.208;27.904;2024-02-15T06:34:00;101417.19;;;7.07;100.00
11523;BME280;70090;43.208;27.904;2024-02-15T06:36:46;101415.91;;;7.04;100.00
11523;BME280;70090;43.208;27.904;2024-02-15T06:39:38;101404.88;;;6.92;100.00
11523;BME280;70090;43.208;27.904;2024-02-15T06:42:07;101422.34;;;7.08;100.00
11523;BME280;70090;43.208;27.904;2024-02-15T06:44:36;101419.72;;;7.12;100.00
11523;BME280;70090;43.208;27.904;2024-02-15T06:47:04;101418.25;;;7.14;100.00
11523;BME280;70090;43.208;27.904;2024-02-15T06:49:31;101428.91;;;7.07;100.00
11523;BME280;70090;43.208;27.904;2024-02-15T06:51:59;101423.31;;;7.04;100.00
11523;BME280;70090;43.208;27.904;2024-02-15T06:54:28;101422.50;;;7.03;100.00
11523;BME280;70090;43.208;27.904;2024-02-15T06:56:55;101424.41;;;7.11;100.00
11523;BME280;70090;43.208;27.904;2024-02-15T06:59:22;101413.59;;;7.15;100.00
11523;BME280;70090;43.208;27.904;2024-02-15T07:01:50;101420.34;;;7.17;100.00
11523;BME280;70090;43.208;27.904;2024-02-15T07:04:20;101410.53;;;7.16;100.00
11523;BME280;70090;43.208;27.904;2024-02-15T07:06:47;101427.91;;;7.20;100.00
11523;BME280;70090;43.208;27.904;2024-02-15T07:09:15;101409.53;;;7.21;100.00
11523;BME280;70090;43.208;27.904;2024-02-15T07:11:43;101423.50;;;7.28;100.00
11523;BME280;70090;43.208;27.904;2024-02-15T07:14:11;101404.94;;;7.33;100.00
11523;BME280;70090;43.208;27.904;2024-02-15T07:16:39;101407.59;;;7.21;100.00
11523;BME280;70090;43.208;27.904;2024-02-15T07:19:07;101419.16;;;7.27;100.00
11523;BME280;70090;43.208;27.904;2024-02-15T07:21:35;101406.25;;;7.27;100.00
11523;BME280;70090;43.208;27.904;2024-02-15T07:24:04;101417.81;;;7.32;100.00
11523;BME280;70090;43.208;27.904;2024-02-15T07:26:31;101419.09;;;7.35;100.00
11523;BME280;70090;43.208;27.904;2024-02-15T07:29:00;101414.84;;;7.26;100.00
11523;BME280;70090;43.208;27.904;2024-02-15T07:31:31;101410.59;;;7.28;100.00
11523;BME280;70090;43.208;27.904;2024-02-15T07:33:58;101422.84;;;7.30;100.00
11523;BME280;70090;43.208;27.904;2024-02-15T07:36:28;101424.03;;;7.21;100.00
11523;BME280;70090;43.208;27.904;2024-02-15T07:38:55;101427.94;;;7.12;100.00
11523;BME280;70090;43.208;27.904;2024-02-15T07:41:26;101429.22;;;7.14;100.00
11523;BME280;70090;43.208;27.904;2024-02-15T07:43:54;101422.28;;;7.17;100.00
11523;BME280;70090;43.208;27.904;2024-02-15T07:46:23;101408.75;;;7.20;100.00
11523;BME280;70090;43.208;27.904;2024-02-15T07:48:50;101417.88;;;7.24;100.00
11523;BME280;70090;43.208;27.904;2024-02-15T07:51:18;101408.16;;;7.35;100.00
11523;BME280;70090;43.208;27.904;2024-02-15T07:53:47;101412.97;;;7.38;100.00
11523;BME280;70090;43.208;27.904;2024-02-15T07:56:16;101419.66;;;7.49;100.00
11523;BME280;70090;43.208;27.904;2024-02-15T07:58:44;101421.00;;;7.43;100.00
11523;BME280;70090;43.208;27.904;2024-02-15T08:01:12;101410.03;;;7.43;100.00
11523;BME280;70090;43.208;27.904;2024-02-15T08:03:40;101410.19;;;7.46;100.00
11523;BME280;70090;43.208;27.904;2024-02-15T08:06:10;101413.53;;;7.52;100.00
11523;BME280;70090;43.208;27.904;2024-02-15T08:08:38;101416.03;;;7.57;100.00
11523;BME280;70090;43.208;27.904;2024-02-15T08:11:08;101405.69;;;7.62;100.00
11523;BME280;70090;43.208;27.904;2024-02-15T08:13:43;101397.00;;;7.60;100.00
11523;BME280;70090;43.208;27.904;2024-02-15T08:16:10;101394.88;;;7.66;100.00
11523;BME280;70090;43.208;27.904;2024-02-15T08:18:38;101399.34;;;7.70;100.00
11523;BME280;70090;43.208;27.904;2024-02-15T08:21:05;101374.78;;;7.62;100.00
11523;BME280;70090;43.208;27.904;2024-02-15T08:23:32;101374.09;;;7.65;100.00
11523;BME280;70090;43.208;27.904;2024-02-15T08:25:59;101352.97;;;7.65;100.00
11523;BME280;70090;43.208;27.904;2024-02-15T08:28:28;101340.53;;;7.68;100.00
11523;BME280;70090;43.208;27.904;2024-02-15T08:30:55;101342.59;;;7.71;100.00
11523;BME280;70090;43.208;27.904;2024-02-15T08:33:23;101332.03;;;7.81;100.00
11523;BME280;70090;43.208;27.904;2024-02-15T08:35:50;101342.91;;;7.90;100.00
11523;BME280;70090;43.208;27.904;2024-02-15T08:38:20;101333.56;;;7.91;100.00
11523;BME280;70090;43.208;27.904;2024-02-15T08:40:47;101350.44;;;7.93;100.00
11523;BME280;70090;43.208;27.904;2024-02-15T08:43:14;101332.22;;;7.97;100.00
11523;BME280;70090;43.208;27.904;2024-02-15T08:45:43;101301.72;;;7.98;100.00
11523;BME280;70090;43.208;27.904;2024-02-15T08:48:11;101330.94;;;7.94;100.00
11523;BME280;70090;43.208;27.904;2024-02-15T08:50:39;101331.75;;;7.95;100.00
11523;BME280;70090;43.208;27.904;2024-02-15T08:53:07;101324.31;;;7.95;100.00
11523;BME280;70090;43.208;27.904;2024-02-15T08:55:34;101336.56;;;7.98;100.00
11523;BME280;70090;43.208;27.904;2024-02-15T08:58:02;101318.28;;;8.02;100.00
11523;BME280;70090;43.208;27.904;2024-02-15T09:00:29;101323.13;;;8.17;99.57
11523;BME280;70090;43.208;27.904;2024-02-15T09:02:58;101312.44;;;8.36;99.16
11523;BME280;70090;43.208;27.904;2024-02-15T09:05:25;101302.16;;;8.45;98.04
11523;BME280;70090;43.208;27.904;2024-02-15T09:07:53;101294.97;;;8.52;98.03
11523;BME280;70090;43.208;27.904;2024-02-15T09:10:20;101298.16;;;8.54;97.49
11523;BME280;70090;43.208;27.904;2024-02-15T09:12:49;101277.47;;;8.45;97.36
11523;BME280;70090;43.208;27.904;2024-02-15T09:15:16;101251.44;;;8.39;96.86
11523;BME280;70090;43.208;27.904;2024-02-15T09:17:44;101273.25;;;8.35;97.12
11523;BME280;70090;43.208;27.904;2024-02-15T09:20:14;101263.88;;;8.36;96.84
11523;BME280;70090;43.208;27.904;2024-02-15T09:22:46;101258.97;;;8.30;97.04
11523;BME280;70090;43.208;27.904;2024-02-15T09:25:14;101247.19;;;8.29;97.10
11523;BME280;70090;43.208;27.904;2024-02-15T09:27:41;101260.91;;;8.41;96.99
11523;BME280;70090;43.208;27.904;2024-02-15T09:30:10;101225.47;;;8.36;96.90
11523;BME280;70090;43.208;27.904;2024-02-15T09:32:37;101247.53;;;8.40;96.64
11523;BME280;70090;43.208;27.904;2024-02-15T09:35:06;101241.13;;;8.48;96.25
11523;BME280;70090;43.208;27.904;2024-02-15T09:37:35;101264.44;;;8.54;96.09
11523;BME280;70090;43.208;27.904;2024-02-15T09:40:03;101264.44;;;8.54;95.74
11523;BME280;70090;43.208;27.904;2024-02-15T09:42:31;101274.94;;;8.64;95.26
11523;BME280;70090;43.208;27.904;2024-02-15T09:45:00;101279.66;;;8.63;95.19
11523;BME280;70090;43.208;27.904;2024-02-15T09:47:34;101285.00;;;8.72;95.33
11523;BME280;70090;43.208;27.904;2024-02-15T09:50:02;101282.72;;;8.74;94.79
11523;BME280;70090;43.208;27.904;2024-02-15T09:52:31;101270.41;;;8.68;94.84
11523;BME280;70090;43.208;27.904;2024-02-15T09:55:02;101283.06;;;8.60;94.84
11523;BME280;70090;43.208;27.904;2024-02-15T09:57:30;101302.16;;;8.57;95.11
11523;BME280;70090;43.208;27.904;2024-02-15T09:59:58;101277.22;;;8.74;95.52
11523;BME280;70090;43.208;27.904;2024-02-15T10:02:26;101309.25;;;8.82;94.69
11523;BME280;70090;43.208;27.904;2024-02-15T10:04:53;101296.31;;;8.82;93.84
11523;BME280;70090;43.208;27.904;2024-02-15T10:07:23;101303.41;;;8.83;94.24
11523;BME280;70090;43.208;27.904;2024-02-15T10:09:50;101308.78;;;8.92;93.00
11523;BME280;70090;43.208;27.904;2024-02-15T10:12:19;101319.88;;;8.95;93.30
11523;BME280;70090;43.208;27.904;2024-02-15T10:14:50;101322.25;;;8.97;93.25
11523;BME280;70090;43.208;27.904;2024-02-15T10:17:18;101317.91;;;8.96;92.78
11523;BME280;70090;43.208;27.904;2024-02-15T10:20:02;101323.84;;;8.98;93.15
11523;BME280;70090;43.208;27.904;2024-02-15T10:22:30;101328.09;;;9.07;92.68
11523;BME280;70090;43.208;27.904;2024-02-15T10:25:10;101319.25;;;9.14;93.31
11523;BME280;70090;43.208;27.904;2024-02-15T10:27:39;101325.53;;;9.26;92.56
11523;BME280;70090;43.208;27.904;2024-02-15T10:30:23;101308.94;;;9.23;91.89
11523;BME280;70090;43.208;27.904;2024-02-15T10:32:51;101310.88;;;9.22;91.57
11523;BME280;70090;43.208;27.904;2024-02-15T10:35:21;101290.06;;;9.21;92.28
11523;BME280;70090;43.208;27.904;2024-02-15T10:37:48;101311.94;;;9.18;92.18
11523;BME280;70090;43.208;27.904;2024-02-15T10:40:19;101302.31;;;9.24;91.35
11523;BME280;70090;43.208;27.904;2024-02-15T10:42:48;101314.88;;;9.25;92.09
11523;BME280;70090;43.208;27.904;2024-02-15T10:45:18;101291.34;;;9.12;92.44
11523;BME280;70090;43.208;27.904;2024-02-15T10:47:46;101323.72;;;9.18;91.96
11523;BME280;70090;43.208;27.904;2024-02-15T10:50:13;101289.84;;;9.26;92.40
11523;BME280;70090;43.208;27.904;2024-02-15T10:52:47;101330.53;;;9.36;91.05
11523;BME280;70090;43.208;27.904;2024-02-15T10:55:19;101324.25;;;9.36;90.97
11523;BME280;70090;43.208;27.904;2024-02-15T10:57:51;101313.47;;;9.43;91.81
11523;BME280;70090;43.208;27.904;2024-02-15T11:00:21;101300.84;;;9.54;90.96
11523;BME280;70090;43.208;27.904;2024-02-15T11:02:58;101284.19;;;9.62;92.25
11523;BME280;70090;43.208;27.904;2024-02-15T11:05:32;101292.13;;;9.79;90.33
11523;BME280;70090;43.208;27.904;2024-02-15T11:08:00;101308.47;;;9.87;89.63
11523;BME280;70090;43.208;27.904;2024-02-15T11:10:30;101290.38;;;9.86;89.16
11523;BME280;70090;43.208;27.904;2024-02-15T11:12:59;101295.72;;;9.95;89.24
11523;BME280;70090;43.208;27.904;2024-02-15T11:15:43;101296.56;;;9.83;89.17
11523;BME280;70090;43.208;27.904;2024-02-15T11:18:41;101290.19;;;9.79;89.88
11523;BME280;70090;43.208;27.904;2024-02-15T11:21:09;101296.75;;;9.90;90.23
11523;BME280;70090;43.208;27.904;2024-02-15T11:23:36;101313.75;;;10.08;88.16
11523;BME280;70090;43.208;27.904;2024-02-15T11:26:04;101275.84;;;10.01;88.14
11523;BME280;70090;43.208;27.904;2024-02-15T11:28:45;101294.06;;;9.78;89.02
11523;BME280;70090;43.208;27.904;2024-02-15T11:31:53;101259.56;;;9.66;89.77
11523;BME280;70090;43.208;27.904;2024-02-15T11:34:42;101275.28;;;9.80;90.21
11523;BME280;70090;43.208;27.904;2024-02-15T11:40:11;101275.16;;;10.04;88.60
11523;BME280;70090;43.208;27.904;2024-02-15T11:42:38;101277.66;;;10.09;88.69
11523;BME280;70090;43.208;27.904;2024-02-15T11:45:07;101273.56;;;10.03;87.86
11523;BME280;70090;43.208;27.904;2024-02-15T11:47:37;101269.47;;;9.97;88.07
11523;BME280;70090;43.208;27.904;2024-02-15T11:50:08;101271.84;;;9.99;88.67
11523;BME280;70090;43.208;27.904;2024-02-15T11:52:38;101277.34;;;9.99;87.98
11523;BME280;70090;43.208;27.904;2024-02-15T11:55:07;101269.47;;;9.97;88.30
11523;BME280;70090;43.208;27.904;2024-02-15T11:57:36;101277.00;;;10.00;88.21
11523;BME280;70090;43.208;27.904;2024-02-15T12:00:21;101260.97;;;10.02;87.89
11523;BME280;70090;43.208;27.904;2024-02-15T12:03:05;101268.25;;;10.10;88.21
11523;BME280;70090;43.208;27.904;2024-02-15T12:05:50;101258.03;;;10.11;88.13
11523;BME280;70090;43.208;27.904;2024-02-15T12:08:35;101265.06;;;10.08;88.20
11523;BME280;70090;43.208;27.904;2024-02-15T12:11:19;101272.88;;;10.06;88.69
11523;BME280;70090;43.208;27.904;2024-02-15T12:17:27;101273.31;;;10.24;88.13
11523;BME280;70090;43.208;27.904;2024-02-15T12:20:11;101269.41;;;10.25;88.74
11523;BME280;70090;43.208;27.904;2024-02-15T12:22:40;101269.94;;;10.30;87.56
11523;BME280;70090;43.208;27.904;2024-02-15T12:25:14;101271.97;;;10.33;87.46
11523;BME280;70090;43.208;27.904;2024-02-15T12:27:42;101271.91;;;10.30;87.95
11523;BME280;70090;43.208;27.904;2024-02-15T12:30:13;101260.53;;;10.31;87.56
11523;BME280;70090;43.208;27.904;2024-02-15T12:32:42;101263.28;;;10.31;87.69
11523;BME280;70090;43.208;27.904;2024-02-15T12:35:10;101281.41;;;10.32;86.84
11523;BME280;70090;43.208;27.904;2024-02-15T12:37:41;101275.19;;;10.35;86.70
11523;BME280;70090;43.208;27.904;2024-02-15T12:40:11;101272.16;;;10.40;86.90
11523;BME280;70090;43.208;27.904;2024-02-15T12:42:42;101240.84;;;10.45;86.23
11523;BME280;70090;43.208;27.904;2024-02-15T12:45:15;101251.91;;;10.48;86.05
11523;BME280;70090;43.208;27.904;2024-02-15T12:47:47;101259.72;;;10.46;85.73
11523;BME280;70090;43.208;27.904;2024-02-15T12:50:17;101253.53;;;10.49;86.08
11523;BME280;70090;43.208;27.904;2024-02-15T12:52:46;101240.34;;;10.58;85.97
11523;BME280;70090;43.208;27.904;2024-02-15T12:55:15;101242.84;;;10.63;85.22
11523;BME280;70090;43.208;27.904;2024-02-15T12:57:44;101285.81;;;10.68;84.92
11523;BME280;70090;43.208;27.904;2024-02-15T13:00:14;101269.81;;;10.73;84.77